createdAt,value
2022-12-25T00:00:20.344Z,98425.22
2022-12-25T00:03:30.109Z,98450.09
2022-12-25T00:06:38.001Z,98454.94
2022-12-25T00:09:44.615Z,98458.50
2022-12-25T00:12:50.335Z,98460.16
2022-12-25T00:15:57.126Z,98473.72
2022-12-25T00:19:05.488Z,98473.09
2022-12-25T00:22:12.018Z,98474.88
2022-12-25T00:25:17.892Z,98470.25
2022-12-25T00:28:26.937Z,98485.53
2022-12-25T00:31:32.781Z,98497.31
2022-12-25T00:34:42.068Z,98504.63
2022-12-25T00:37:47.714Z,98509.91
2022-12-25T00:40:54.847Z,98508.25
2022-12-25T00:44:00.500Z,98522.00
2022-12-25T00:47:07.541Z,98510.06
2022-12-25T00:50:16.025Z,98529.25
2022-12-25T00:53:22.463Z,98529.41
2022-12-25T00:56:28.441Z,98519.91
2022-12-25T00:59:35.596Z,98534.47
2022-12-25T01:02:43.171Z,98544.28
2022-12-25T01:06:02.071Z,98535.28
2022-12-25T01:09:20.454Z,98537.22
2022-12-25T01:12:27.630Z,98550.38
2022-12-25T01:15:33.236Z,98543.28
2022-12-25T01:18:40.675Z,98554.31
2022-12-25T01:21:48.966Z,98566.44
2022-12-25T01:24:55.482Z,98568.31
2022-12-25T01:28:02.930Z,98569.13
2022-12-25T01:31:14.657Z,98563.63
2022-12-25T01:34:20.425Z,98561.47
2022-12-25T01:37:29.882Z,98571.47
2022-12-25T01:40:37.716Z,98576.50
2022-12-25T01:44:06.560Z,98573.84
2022-12-25T01:47:12.185Z,98582.34
2022-12-25T01:50:19.615Z,98587.34
2022-12-25T01:53:29.686Z,98594.22
2022-12-25T01:56:40.738Z,98583.75
2022-12-25T01:59:47.920Z,98585.63
2022-12-25T02:02:54.634Z,98592.66
2022-12-25T02:06:01.858Z,98597.13
2022-12-25T02:09:11.322Z,98604.78
2022-12-25T02:12:26.067Z,98606.81
2022-12-25T02:15:48.805Z,98608.75
2022-12-25T02:19:06.272Z,98608.28
2022-12-25T02:22:37.870Z,98605.53
2022-12-25T02:26:11.185Z,98601.16
2022-12-25T02:29:32.032Z,98603.28
2022-12-25T02:32:47.995Z,98606.59
2022-12-25T02:35:59.944Z,98602.03
2022-12-25T02:39:34.791Z,98600.94
2022-12-25T02:43:03.255Z,98597.13
2022-12-25T02:46:32.549Z,98598.84
2022-12-25T02:49:54.358Z,98600.31
2022-12-25T02:53:18.555Z,98602.81
2022-12-25T02:56:43.295Z,98596.38
2022-12-25T03:00:09.768Z,98601.63
2022-12-25T03:03:33.814Z,98612.03
2022-12-25T03:06:48.758Z,98602.22
2022-12-25T03:10:14.915Z,98604.22
2022-12-25T03:13:27.363Z,98600.94
2022-12-25T03:16:46.819Z,98602.28
2022-12-25T03:20:08.643Z,98606.03
2022-12-25T03:23:34.472Z,98609.41
2022-12-25T03:26:54.092Z,98622.31
2022-12-25T03:30:20.777Z,98615.84
2022-12-25T03:34:09.342Z,98621.53
2022-12-25T03:37:57.772Z,98622.91
2022-12-25T03:41:34.957Z,98627.22
2022-12-25T03:45:10.751Z,98632.16
2022-12-25T03:48:33.450Z,98626.41
2022-12-25T03:51:58.380Z,98630.88
2022-12-25T03:55:27.078Z,98631.69
2022-12-25T03:58:45.234Z,98633.50
2022-12-25T04:02:05.851Z,98640.53
2022-12-25T04:05:24.362Z,98642.84
2022-12-25T04:08:43.493Z,98648.16
2022-12-25T04:12:07.466Z,98647.34
2022-12-25T04:15:27.145Z,98659.16
2022-12-25T04:18:45.292Z,98661.63
2022-12-25T04:22:15.903Z,98671.41
2022-12-25T04:25:33.958Z,98668.19
2022-12-25T04:28:55.399Z,98670.22
2022-12-25T04:32:28.593Z,98673.66
2022-12-25T04:35:47.360Z,98673.97
2022-12-25T04:38:53.186Z,98679.47
2022-12-25T04:42:01.183Z,98676.03
2022-12-25T04:45:14.377Z,98672.28
2022-12-25T04:48:20.911Z,98679.13
2022-12-25T04:51:29.636Z,98664.25
2022-12-25T04:54:36.309Z,98660.03
2022-12-25T04:57:42.751Z,98675.53
2022-12-25T05:00:51.882Z,98671.09
2022-12-25T05:03:57.791Z,98662.72
2022-12-25T05:07:04.422Z,98670.75
2022-12-25T05:10:11.921Z,98676.94
2022-12-25T05:13:18.600Z,98677.47
2022-12-25T05:16:27.617Z,98694.22
2022-12-25T05:19:34.315Z,98681.47
2022-12-25T05:22:40.006Z,98689.19
2022-12-25T05:25:46.351Z,98693.97
2022-12-25T05:28:52.725Z,98685.59
2022-12-25T05:32:02.230Z,98693.59
2022-12-25T05:35:09.457Z,98697.84
2022-12-25T05:38:16.016Z,98678.00
2022-12-25T05:41:21.777Z,98703.84
2022-12-25T05:44:28.400Z,98712.50
2022-12-25T05:47:36.759Z,98720.22
2022-12-25T05:50:43.177Z,98712.41
2022-12-25T05:53:48.812Z,98714.94
2022-12-25T05:56:55.306Z,98710.09
2022-12-25T06:00:01.831Z,98717.47
2022-12-25T06:03:11.014Z,98720.56
2022-12-25T06:06:17.845Z,98713.03
2022-12-25T06:09:24.245Z,98728.09
2022-12-25T06:12:30.053Z,98729.16
2022-12-25T06:15:36.613Z,98740.84
2022-12-25T06:18:52.640Z,98746.63
2022-12-25T06:22:01.807Z,98726.59
2022-12-25T06:25:17.488Z,98747.06
2022-12-25T06:28:25.431Z,98751.19
2022-12-25T06:31:31.351Z,98762.47
2022-12-25T06:34:40.632Z,98760.00
2022-12-25T06:37:46.452Z,98763.84
2022-12-25T06:40:53.042Z,98767.69
2022-12-25T06:44:03.471Z,98766.84
2022-12-25T06:47:10.164Z,98771.53
2022-12-25T06:50:21.105Z,98763.50
2022-12-25T06:53:28.203Z,98782.44
2022-12-25T06:56:37.795Z,98785.47
2022-12-25T06:59:46.392Z,98795.06
2022-12-25T07:02:54.606Z,98799.56
2022-12-25T07:06:03.828Z,98818.72
2022-12-25T07:09:09.564Z,98815.72
2022-12-25T07:12:22.026Z,98831.78
2022-12-25T07:15:27.750Z,98839.78
2022-12-25T07:18:35.731Z,98853.22
2022-12-25T07:21:43.995Z,98852.69
2022-12-25T07:24:50.540Z,98860.00
2022-12-25T07:27:56.198Z,98859.09
2022-12-25T07:31:08.753Z,98860.22
2022-12-25T07:34:14.402Z,98863.47
2022-12-25T07:37:23.342Z,98859.25
2022-12-25T07:40:28.993Z,98856.75
2022-12-25T07:43:35.475Z,98850.59
2022-12-25T07:46:41.143Z,98856.75
2022-12-25T07:49:47.608Z,98846.72
2022-12-25T07:52:56.080Z,98849.53
2022-12-25T07:56:06.543Z,98854.56
2022-12-25T07:59:12.262Z,98852.56
2022-12-25T08:02:18.695Z,98861.31
2022-12-25T08:05:24.455Z,98849.78
2022-12-25T08:08:34.469Z,98853.75
2022-12-25T08:11:41.766Z,98853.91
2022-12-25T08:14:48.290Z,98853.16
2022-12-25T08:17:53.975Z,98862.34
2022-12-25T08:21:05.655Z,98858.81
2022-12-25T08:24:13.965Z,98860.75
2022-12-25T08:27:20.351Z,98851.31
2022-12-25T08:30:26.547Z,98849.28
2022-12-25T08:33:33.044Z,98849.88
2022-12-25T08:36:38.948Z,98843.19
2022-12-25T08:39:48.098Z,98843.47
2022-12-25T08:42:53.939Z,98845.00
2022-12-25T08:46:00.937Z,98850.81
2022-12-25T08:49:06.692Z,98858.00
2022-12-25T08:52:13.178Z,98872.88
2022-12-25T08:55:21.626Z,98882.53
2022-12-25T08:58:28.638Z,98883.78
2022-12-25T09:01:34.591Z,98894.25
2022-12-25T09:04:41.561Z,98889.41
2022-12-25T09:07:47.497Z,98886.13
2022-12-25T09:10:56.765Z,98889.31
2022-12-25T09:14:03.679Z,98893.72
2022-12-25T09:17:10.369Z,98889.19
2022-12-25T09:20:16.153Z,98890.97
2022-12-25T09:23:22.633Z,98894.53
2022-12-25T09:26:30.911Z,98883.81
2022-12-25T09:29:39.087Z,98891.91
2022-12-25T09:32:45.078Z,98895.31
2022-12-25T09:35:59.250Z,98888.84
2022-12-25T09:39:05.397Z,98895.03
2022-12-25T09:42:22.886Z,98892.25
2022-12-25T09:45:36.032Z,98900.94
2022-12-25T09:48:51.229Z,98906.41
2022-12-25T09:52:08.076Z,98899.78
2022-12-25T09:55:20.615Z,98906.66
2022-12-25T09:58:33.279Z,98898.75
2022-12-25T10:02:05.919Z,98902.50
2022-12-25T10:06:09.273Z,98901.72
2022-12-25T10:09:51.146Z,98891.78
2022-12-25T10:13:14.622Z,98897.13
2022-12-25T10:16:37.779Z,98899.69
2022-12-25T10:19:58.336Z,98894.25
2022-12-25T10:23:16.993Z,98881.16
2022-12-25T10:26:27.360Z,98881.91
2022-12-25T10:29:38.695Z,98882.66
2022-12-25T10:32:49.460Z,98893.34
2022-12-25T10:35:56.067Z,98884.81
2022-12-25T10:39:02.187Z,98883.63
2022-12-25T10:42:40.328Z,98876.97
2022-12-25T10:45:49.142Z,98864.38
2022-12-25T10:49:05.875Z,98878.03
2022-12-25T10:52:24.424Z,98867.47
2022-12-25T10:55:30.953Z,98865.88
2022-12-25T10:58:37.622Z,98855.78
2022-12-25T11:01:44.448Z,98864.19
2022-12-25T11:05:02.584Z,98853.53
2022-12-25T11:08:24.489Z,98848.19
2022-12-25T11:11:33.591Z,98849.44
2022-12-25T11:14:40.794Z,98842.38
2022-12-25T11:17:52.615Z,98837.03
2022-12-25T11:21:04.186Z,98836.25
2022-12-25T11:24:22.469Z,98833.06
2022-12-25T11:27:33.669Z,98831.72
2022-12-25T11:30:43.092Z,98844.28
2022-12-25T11:34:00.312Z,98826.38
2022-12-25T11:37:20.540Z,98824.91
2022-12-25T11:40:37.427Z,98821.97
2022-12-25T11:43:56.568Z,98814.31
2022-12-25T11:47:16.527Z,98809.88
2022-12-25T11:50:33.726Z,98801.00
2022-12-25T11:53:54.809Z,98799.34
2022-12-25T11:57:09.382Z,98819.25
2022-12-25T12:00:19.869Z,98817.03
2022-12-25T12:03:34.054Z,98817.03
2022-12-25T12:06:59.167Z,98807.59
2022-12-25T12:10:21.961Z,98803.59
2022-12-25T12:13:53.615Z,98795.97
2022-12-25T12:16:59.548Z,98793.78
2022-12-25T12:20:16.346Z,98792.50
2022-12-25T12:23:22.211Z,98797.84
2022-12-25T12:26:38.001Z,98804.16
2022-12-25T12:29:51.503Z,98805.81
2022-12-25T12:33:02.889Z,98803.72
2022-12-25T12:36:15.502Z,98807.69
2022-12-25T12:39:29.711Z,98810.81
2022-12-25T12:42:50.763Z,98803.72
2022-12-25T12:46:04.829Z,98796.50
2022-12-25T12:49:23.542Z,98786.09
2022-12-25T12:52:37.835Z,98783.47
2022-12-25T12:55:43.678Z,98798.44
2022-12-25T12:58:53.976Z,98798.59
2022-12-25T13:02:29.245Z,98790.34
2022-12-25T13:05:46.295Z,98800.16
2022-12-25T13:09:09.373Z,98794.72
2022-12-25T13:12:19.878Z,98803.03
2022-12-25T13:15:33.465Z,98804.84
2022-12-25T13:18:44.859Z,98808.63
2022-12-25T13:21:58.518Z,98814.19
2022-12-25T13:25:10.348Z,98811.41
2022-12-25T13:28:17.886Z,98807.44
2022-12-25T13:31:30.932Z,98813.19
2022-12-25T13:34:42.387Z,98813.75
2022-12-25T13:37:51.559Z,98812.06
2022-12-25T13:41:13.570Z,98802.34
2022-12-25T13:44:26.552Z,98812.81
2022-12-25T13:47:41.521Z,98814.63
2022-12-25T13:50:48.982Z,98808.56
2022-12-25T13:54:06.557Z,98817.72
2022-12-25T13:57:16.047Z,98804.94
2022-12-25T14:00:27.665Z,98787.28
2022-12-25T14:03:42.908Z,98794.19
2022-12-25T14:06:49.131Z,98799.06
2022-12-25T14:10:03.352Z,98801.88
2022-12-25T14:13:17.458Z,98802.47
2022-12-25T14:16:26.258Z,98805.25
2022-12-25T14:19:39.382Z,98809.19
2022-12-25T14:22:55.136Z,98801.94
2022-12-25T14:26:01.062Z,98799.25
2022-12-25T14:29:20.467Z,98797.16
2022-12-25T14:32:34.247Z,98782.38
2022-12-25T14:35:46.166Z,98783.66
2022-12-25T14:39:04.205Z,98773.31
2022-12-25T14:42:23.266Z,98751.19
2022-12-25T14:45:35.566Z,98769.88
2022-12-25T14:48:42.659Z,98774.88
2022-12-25T14:51:51.031Z,98781.72
2022-12-25T14:55:03.837Z,98799.84
2022-12-25T14:58:21.477Z,98794.31
2022-12-25T15:01:35.722Z,98806.34
2022-12-25T15:04:45.858Z,98805.06
2022-12-25T15:08:26.843Z,98814.44
2022-12-25T15:11:33.432Z,98824.09
2022-12-25T15:14:40.522Z,98813.75
2022-12-25T15:17:46.572Z,98822.00
2022-12-25T15:20:58.761Z,98814.66
2022-12-25T15:24:08.094Z,98808.47
2022-12-25T15:27:21.564Z,98785.50
2022-12-25T15:30:30.584Z,98782.88
2022-12-25T15:33:42.220Z,98770.19
2022-12-25T15:36:50.112Z,98766.19
2022-12-25T15:39:59.588Z,98764.91
2022-12-25T15:43:11.365Z,98758.56
2022-12-25T15:46:27.465Z,98747.69
2022-12-25T15:49:33.137Z,98733.84
2022-12-25T15:52:39.828Z,98734.28
2022-12-25T15:55:48.125Z,98743.09
2022-12-25T15:58:55.219Z,98736.75
2022-12-25T16:02:04.553Z,98740.06
2022-12-25T16:05:12.244Z,98753.88
2022-12-25T16:08:17.938Z,98739.63
2022-12-25T16:11:27.326Z,98734.72
2022-12-25T16:14:33.398Z,98730.06
2022-12-25T16:17:39.980Z,98732.06
2022-12-25T16:20:45.819Z,98731.97
2022-12-25T16:23:52.804Z,98751.09
2022-12-25T16:27:01.104Z,98756.63
2022-12-25T16:30:09.534Z,98753.03
2022-12-25T16:33:15.486Z,98747.28
2022-12-25T16:36:26.876Z,98756.59
2022-12-25T16:39:33.083Z,98755.59
2022-12-25T16:42:42.721Z,98747.91
2022-12-25T16:45:48.437Z,98737.44
2022-12-25T16:48:57.402Z,98729.72
2022-12-25T16:52:03.990Z,98729.97
2022-12-25T16:55:11.684Z,98719.75
2022-12-25T16:58:21.079Z,98733.06
2022-12-25T17:01:28.421Z,98741.31
2022-12-25T17:04:34.579Z,98714.38
2022-12-25T17:07:41.200Z,98714.94
2022-12-25T17:10:46.792Z,98712.88
2022-12-25T17:13:56.381Z,98707.56
2022-12-25T17:17:02.122Z,98707.03
2022-12-25T17:20:11.051Z,98686.09
2022-12-25T17:23:16.768Z,98680.19
2022-12-25T17:26:24.369Z,98667.84
2022-12-25T17:29:32.980Z,98664.03
2022-12-25T17:32:39.768Z,98673.31
2022-12-25T17:35:45.565Z,98682.16
2022-12-25T17:38:52.924Z,98681.09
2022-12-25T17:41:58.754Z,98683.84
2022-12-25T17:45:09.316Z,98688.13
2022-12-25T17:48:14.953Z,98684.25
2022-12-25T17:51:24.699Z,98692.09
2022-12-25T17:54:30.560Z,98699.38
2022-12-25T17:57:37.329Z,98697.31
2022-12-25T18:00:45.706Z,98694.72
2022-12-25T18:03:53.018Z,98686.75
2022-12-25T18:06:58.731Z,98682.31
2022-12-25T18:10:05.479Z,98676.19
2022-12-25T18:13:11.560Z,98671.47
2022-12-25T18:16:24.063Z,98670.41
2022-12-25T18:19:29.831Z,98669.41
2022-12-25T18:22:37.417Z,98678.09
2022-12-25T18:25:45.728Z,98684.56
2022-12-25T18:28:53.287Z,98658.72
2022-12-25T18:32:01.785Z,98665.19
2022-12-25T18:35:09.596Z,98672.59
2022-12-25T18:38:16.997Z,98664.75
2022-12-25T18:41:27.702Z,98670.16
2022-12-25T18:44:33.988Z,98658.72
2022-12-25T18:47:43.305Z,98667.38
2022-12-25T18:50:49.005Z,98663.91
2022-12-25T18:53:56.540Z,98652.22
2022-12-25T18:57:07.146Z,98642.78
2022-12-25T19:00:15.597Z,98648.00
2022-12-25T19:03:24.778Z,98651.84
2022-12-25T19:06:33.503Z,98648.81
2022-12-25T19:09:40.381Z,98660.34
2022-12-25T19:12:47.430Z,98659.50
2022-12-25T19:15:53.492Z,98646.19
2022-12-25T19:19:06.576Z,98646.66
2022-12-25T19:22:14.002Z,98642.78
2022-12-25T19:25:21.507Z,98642.91
2022-12-25T19:28:27.906Z,98632.47
2022-12-25T19:31:34.848Z,98627.38
2022-12-25T19:34:43.367Z,98612.94
2022-12-25T19:37:51.749Z,98621.03
2022-12-25T19:41:03.821Z,98603.75
2022-12-25T19:44:14.422Z,98613.94
2022-12-25T19:47:20.129Z,98618.03
2022-12-25T19:50:37.203Z,98614.06
2022-12-25T19:53:45.130Z,98599.91
2022-12-25T19:56:52.851Z,98608.69
2022-12-25T19:59:58.909Z,98601.84
2022-12-25T20:03:05.695Z,98597.84
2022-12-25T20:06:22.151Z,98590.69
2022-12-25T20:09:28.754Z,98571.47
2022-12-25T20:12:34.457Z,98577.91
2022-12-25T20:15:41.467Z,98573.25
2022-12-25T20:18:47.949Z,98571.63
2022-12-25T20:21:57.257Z,98573.25
2022-12-25T20:25:03.401Z,98574.06
2022-12-25T20:28:09.861Z,98562.81
2022-12-25T20:31:20.918Z,98572.13
2022-12-25T20:34:30.168Z,98565.84
2022-12-25T20:37:38.639Z,98568.19
2022-12-25T20:41:24.483Z,98553.09
2022-12-25T20:44:13.529Z,98559.13
2022-12-25T20:47:20.920Z,98548.13
2022-12-25T20:50:28.404Z,98552.53
2022-12-25T20:53:37.889Z,98549.25
2022-12-25T20:56:46.075Z,98522.06
2022-12-25T20:59:52.667Z,98519.47
2022-12-25T21:02:58.896Z,98532.25
2022-12-25T21:06:06.416Z,98527.84
2022-12-25T21:09:14.726Z,98522.63
2022-12-25T21:12:23.675Z,98519.63
2022-12-25T21:15:36.741Z,98515.22
2022-12-25T21:18:43.572Z,98494.78
2022-12-25T21:21:49.178Z,98484.50
2022-12-25T21:24:58.590Z,98493.97
2022-12-25T21:28:04.820Z,98505.91
2022-12-25T21:31:14.085Z,98522.09
2022-12-25T21:34:17.427Z,98509.34
2022-12-25T21:37:26.514Z,98515.50
2022-12-25T21:40:39.718Z,98506.69
2022-12-25T21:43:46.954Z,98500.63
2022-12-25T21:46:52.762Z,98500.50
2022-12-25T21:50:11.903Z,98506.28
2022-12-25T21:53:23.188Z,98491.69
2022-12-25T21:56:43.092Z,98493.38
2022-12-25T21:59:49.545Z,98486.47
2022-12-25T22:02:57.545Z,98472.63
2022-12-25T22:06:21.155Z,98479.66
2022-12-25T22:09:28.655Z,98486.09
2022-12-25T22:12:51.598Z,98479.19
2022-12-25T22:16:19.784Z,98478.94
2022-12-25T22:19:38.187Z,98483.47
2022-12-25T22:22:45.687Z,98491.84
2022-12-25T22:25:51.471Z,98481.41
2022-12-25T22:29:00.636Z,98485.13
2022-12-25T22:32:07.443Z,98470.47
2022-12-25T22:35:15.052Z,98449.06
2022-12-25T22:38:20.721Z,98462.94
2022-12-25T22:41:33.300Z,98463.09
2022-12-25T22:44:42.468Z,98451.44
2022-12-25T22:47:48.890Z,98434.97
2022-12-25T22:50:54.798Z,98445.16
2022-12-25T22:54:03.830Z,98451.88
2022-12-25T22:57:09.811Z,98447.75
2022-12-25T23:00:19.212Z,98446.38
2022-12-25T23:03:25.045Z,98442.91
2022-12-25T23:06:32.084Z,98455.81
2022-12-25T23:09:37.798Z,98446.19
2022-12-25T23:12:56.661Z,98450.19
2022-12-25T23:16:05.408Z,98453.34
2022-12-25T23:19:27.107Z,98447.88
2022-12-25T23:22:45.161Z,98456.94
2022-12-25T23:26:04.019Z,98445.00
2022-12-25T23:29:22.069Z,98437.44
2022-12-25T23:32:31.714Z,98432.09
2022-12-25T23:35:37.623Z,98449.91
2022-12-25T23:38:44.024Z,98439.19
2022-12-25T23:41:49.631Z,98440.03
2022-12-25T23:44:56.035Z,98440.44
2022-12-25T23:48:04.361Z,98418.50
2022-12-25T23:51:14.205Z,98408.66
2022-12-25T23:54:24.007Z,98367.97
2022-12-25T23:57:30.385Z,98375.22
